Time;durP1;ratioP1;P1;durP2;ratioP2;P2;SDS_P1;SDS_P2;PMS_P1;PMS_P2;Temp;Humidity;BMP_temperature;BMP_pressure;BME280_temperature;BME280_humidity;BME280_pressure;Samples;Min_cycle;Max_cycle;Signal;HPM_P1;HPM_P2
2022/12/23 00:01:00;;;;;;;268.52;144.30;;;8.00;99.90;;;;;;5077651;28;20025;-61
2022/12/23 00:03:27;;;;;;;332.15;185.32;;;8.00;99.90;;;;;;5077151;28;20028;-61
2022/12/23 00:05:53;;;;;;;330.25;185.00;;;8.10;99.90;;;;;;5077500;28;20060;-60
2022/12/23 00:08:20;;;;;;;284.33;161.52;;;8.00;99.90;;;;;;5077165;28;20386;-61
2022/12/23 00:10:48;;;;;;;318.95;176.98;;;7.90;99.90;;;;;;5077298;28;20032;-60
2022/12/23 00:16:04;;;;;;;305.15;170.35;;;7.80;99.90;;;;;;5077148;28;20031;-61
2022/12/23 00:18:29;;;;;;;;;;;7.70;99.90;;;;;;5077177;28;20049;-61
2022/12/23 00:21:04;;;;;;;295.98;163.02;;;7.70;99.90;;;;;;5077104;28;19915;-61
2022/12/23 00:23:32;;;;;;;287.70;158.75;;;7.60;99.90;;;;;;5076893;28;20566;-61
2022/12/23 00:25:59;;;;;;;283.70;156.95;;;7.60;99.90;;;;;;5077061;28;20025;-61
2022/12/23 00:28:26;;;;;;;284.63;154.05;;;7.50;99.90;;;;;;5076724;28;20028;-61
2022/12/23 00:31:01;;;;;;;281.90;153.98;;;7.50;99.90;;;;;;5077006;28;20119;-61
2022/12/23 00:33:39;;;;;;;310.67;159.43;;;7.50;99.90;;;;;;5076666;28;20466;-61
2022/12/23 00:36:19;;;;;;;353.15;172.25;;;7.60;99.90;;;;;;5076902;28;20354;-61
2022/12/23 00:44:14;;;;;;;327.67;170.13;;;7.60;99.90;;;;;;5076561;28;20040;-61
2022/12/23 00:46:40;;;;;;;318.40;168.02;;;7.50;99.90;;;;;;5076654;28;20037;-61
2022/12/23 00:51:51;;;;;;;315.77;176.40;;;7.50;99.90;;;;;;5076574;28;20036;-61
2022/12/23 00:54:17;;;;;;;300.17;164.30;;;7.60;99.90;;;;;;5076208;28;20042;-61
2022/12/23 00:56:43;;;;;;;302.65;161.85;;;7.60;99.90;;;;;;5076321;28;20339;-61
2022/12/23 00:59:09;;;;;;;289.13;154.02;;;7.60;99.90;;;;;;5075741;28;20020;-61
2022/12/23 01:07:05;;;;;;;270.52;146.85;;;7.70;99.90;;;;;;5076368;28;20056;-61
2022/12/23 01:09:30;;;;;;;256.88;140.98;;;7.70;99.90;;;;;;5075926;28;20025;-61
2022/12/23 01:11:56;;;;;;;263.08;143.25;;;7.60;99.90;;;;;;5058132;28;20044;-61
2022/12/23 01:14:23;;;;;;;265.40;144.00;;;7.60;99.90;;;;;;5075907;28;20034;-61
2022/12/23 01:16:49;;;;;;;311.73;169.45;;;7.60;99.90;;;;;;5075958;28;20035;-61
2022/12/23 01:19:15;;;;;;;312.77;177.32;;;7.50;99.90;;;;;;5075956;28;20037;-61
2022/12/23 01:21:41;;;;;;;333.23;194.27;;;7.50;99.90;;;;;;5076104;28;20024;-61
2022/12/23 01:24:07;;;;;;;287.58;156.35;;;7.60;99.90;;;;;;5075987;28;20031;-61
2022/12/23 01:26:34;;;;;;;274.52;146.07;;;7.60;99.90;;;;;;5075784;28;20071;-61
2022/12/23 01:29:01;;;;;;;269.80;147.10;;;7.50;99.90;;;;;;5075674;28;20399;-61
2022/12/23 01:31:28;;;;;;;281.08;155.82;;;7.60;99.90;;;;;;5057778;28;20466;-61
2022/12/23 01:33:54;;;;;;;315.95;171.05;;;7.50;99.90;;;;;;5075668;28;20458;-61
2022/12/23 01:36:21;;;;;;;313.17;173.70;;;7.30;99.90;;;;;;5075701;28;20086;-61
2022/12/23 01:38:47;;;;;;;288.77;152.93;;;7.30;99.90;;;;;;5075830;28;20048;-61
2022/12/23 01:44:45;;;;;;;285.73;151.20;;;7.20;99.90;;;;;;5075872;28;20025;-61
2022/12/23 01:47:33;;;;;;;300.17;157.98;;;7.10;99.90;;;;;;5075463;28;20028;-60
2022/12/23 01:50:28;;;;;;;266.90;144.25;;;7.10;99.90;;;;;;5034088;28;20047;-61
2022/12/23 01:53:12;;;;;;;289.92;157.13;;;7.00;99.90;;;;;;5066432;28;20040;-61
2022/12/23 01:56:06;;;;;;;330.23;170.65;;;6.80;99.90;;;;;;5075368;28;20035;-60
2022/12/23 01:58:39;;;;;;;311.67;166.73;;;6.80;99.90;;;;;;5075118;28;20037;-61
2022/12/23 02:03:56;;;;;;;251.65;134.40;;;6.50;99.90;;;;;;5075391;28;20035;-61
2022/12/23 02:09:29;;;;;;;284.55;149.93;;;6.40;99.90;;;;;;5073956;28;20052;-61
2022/12/23 02:12:27;;;;;;;267.65;141.75;;;6.30;99.90;;;;;;5075023;28;20024;-61
2022/12/23 02:18:14;;;;;;;282.50;152.63;;;6.20;99.90;;;;;;5074626;28;20147;-60
2022/12/23 02:20:49;;;;;;;272.30;142.77;;;6.20;99.90;;;;;;5074891;28;20024;-60
2022/12/23 02:23:36;;;;;;;250.50;133.88;;;6.10;99.90;;;;;;5074573;28;20065;-60
2022/12/23 02:26:14;;;;;;;235.30;126.45;;;6.10;99.90;;;;;;5074873;28;20028;-60
2022/12/23 02:28:58;;;;;;;242.07;128.63;;;6.10;99.90;;;;;;5074597;28;20030;-60
2022/12/23 02:31:48;;;;;;;242.45;130.27;;;6.10;99.90;;;;;;5074445;28;20516;-61
2022/12/23 02:34:35;;;;;;;305.58;161.70;;;6.20;99.90;;;;;;5074327;28;20546;-61
2022/12/23 02:37:18;;;;;;;309.65;163.02;;;6.20;99.90;;;;;;5075085;28;20020;-60
2022/12/23 02:39:49;;;;;;;278.70;145.48;;;6.20;99.90;;;;;;5074413;28;20032;-61
2022/12/23 02:42:18;;;;;;;329.67;169.82;;;6.30;99.90;;;;;;5056334;28;20024;-60
2022/12/23 02:45:05;;;;;;;347.17;173.45;;;6.30;99.90;;;;;;5074545;28;20033;-61
2022/12/23 02:47:38;;;;;;;453.58;231.95;;;6.30;99.90;;;;;;5074357;28;20062;-60
2022/12/23 02:50:10;;;;;;;370.92;188.93;;;6.20;99.90;;;;;;5074332;28;20496;-61
2022/12/23 02:52:40;;;;;;;368.13;176.65;;;6.10;99.90;;;;;;5074321;28;20029;-60
2022/12/23 02:55:12;;;;;;;290.50;150.05;;;6.10;99.90;;;;;;5074353;28;20209;-60
2022/12/23 02:57:43;;;;;;;309.83;159.18;;;6.00;99.90;;;;;;5074265;28;20105;-60
2022/12/23 03:00:11;;;;;;;288.13;146.75;;;5.80;99.90;;;;;;5074289;28;20078;-61
2022/12/23 03:02:39;;;;;;;284.45;138.75;;;5.80;99.90;;;;;;5074067;28;20064;-61
2022/12/23 03:05:21;;;;;;;324.60;165.27;;;5.70;99.90;;;;;;5074125;28;20056;-60
2022/12/23 03:07:47;;;;;;;367.88;190.43;;;5.70;99.90;;;;;;5074181;28;20431;-60
2022/12/23 03:10:38;;;;;;;355.08;183.07;;;5.60;99.90;;;;;;5073783;28;20467;-61
2022/12/23 03:13:13;;;;;;;;;;;5.50;99.90;;;;;;5074541;28;20082;-60
2022/12/23 03:15:58;;;;;;;173.70;93.68;;;5.40;99.90;;;;;;5074001;28;19916;-62
2022/12/23 03:18:24;;;;;;;151.15;85.10;;;5.20;99.90;;;;;;5073630;28;20051;-61
2022/12/23 03:21:03;;;;;;;154.57;86.10;;;5.30;99.90;;;;;;5073630;28;20025;-60
2022/12/23 03:23:37;;;;;;;235.73;120.50;;;5.20;99.90;;;;;;5073862;28;20439;-60
2022/12/23 03:26:22;;;;;;;274.60;135.55;;;5.20;99.90;;;;;;5073975;28;20033;-60
2022/12/23 03:28:54;;;;;;;320.35;150.07;;;5.20;99.90;;;;;;5073814;28;20028;-60
2022/12/23 03:31:25;;;;;;;294.08;140.05;;;5.10;99.90;;;;;;5073944;28;20474;-60
2022/12/23 03:33:57;;;;;;;249.90;117.57;;;5.00;99.90;;;;;;5073868;28;20495;-60
2022/12/23 03:36:28;;;;;;;318.55;144.68;;;5.00;99.90;;;;;;5073781;28;20107;-60
2022/12/23 03:38:54;;;;;;;;;;;4.90;99.90;;;;;;5074409;28;20032;-61
2022/12/23 03:41:35;;;;;;;360.77;150.85;;;4.90;99.90;;;;;;5073524;28;20498;-60
2022/12/23 03:44:33;;;;;;;437.52;162.60;;;4.90;99.90;;;;;;5073920;28;20043;-61
2022/12/23 03:47:29;;;;;;;354.45;154.35;;;4.80;99.90;;;;;;5073768;28;20451;-60
2022/12/23 03:49:59;;;;;;;262.08;126.85;;;4.80;99.90;;;;;;5071817;28;20040;-60
2022/12/23 03:52:34;;;;;;;261.20;120.05;;;4.90;99.90;;;;;;5073606;28;20029;-60
2022/12/23 03:55:06;;;;;;;329.58;139.35;;;5.00;99.90;;;;;;5073636;28;20194;-60
2022/12/23 03:57:44;;;;;;;352.33;136.90;;;5.00;99.90;;;;;;5074002;28;20359;-61
2022/12/23 04:00:10;;;;;;;317.95;134.25;;;4.90;99.90;;;;;;5073627;28;20025;-60
2022/12/23 04:03:04;;;;;;;519.10;168.70;;;4.90;99.90;;;;;;5073633;28;20028;-60
2022/12/23 04:05:38;;;;;;;401.25;151.43;;;4.90;99.90;;;;;;5073402;28;20036;-60
2022/12/23 04:08:38;;;;;;;347.42;143.93;;;4.90;99.90;;;;;;5073696;28;20390;-61
2022/12/23 04:11:05;;;;;;;522.47;165.32;;;4.90;99.90;;;;;;5052916;28;20041;-60
2022/12/23 04:13:31;;;;;;;328.40;134.23;;;4.90;99.90;;;;;;5053238;28;20036;-60
2022/12/23 04:15:59;;;;;;;333.08;119.63;;;4.90;99.90;;;;;;5053359;28;20104;-61
2022/12/23 04:18:25;;;;;;;560.05;155.55;;;4.90;99.90;;;;;;5053153;28;20103;-60
2022/12/23 04:20:51;;;;;;;358.13;130.85;;;4.90;99.90;;;;;;5053519;28;20029;-60
2022/12/23 04:23:17;;;;;;;514.58;144.25;;;4.90;99.90;;;;;;5053259;28;20025;-61
2022/12/23 04:25:42;;;;;;;258.58;114.22;;;4.90;99.90;;;;;;5053395;28;20033;-61
2022/12/23 04:28:08;;;;;;;385.33;144.77;;;5.00;99.90;;;;;;5053341;28;20029;-60
2022/12/23 04:30:34;;;;;;;372.45;146.75;;;5.00;99.90;;;;;;5053290;28;20053;-60
2022/12/23 04:33:01;;;;;;;467.08;148.68;;;5.00;99.90;;;;;;5054323;28;20036;-61
2022/12/23 04:35:27;;;;;;;441.35;151.73;;;5.00;99.90;;;;;;5056830;28;20028;-60
2022/12/23 04:37:53;;;;;;;372.02;133.20;;;5.10;99.90;;;;;;5056927;28;20033;-60
2022/12/23 04:40:18;;;;;;;419.25;140.98;;;5.10;99.90;;;;;;5056583;28;20490;-61
2022/12/23 04:42:44;;;;;;;303.83;121.82;;;5.00;99.90;;;;;;5056767;28;20029;-61
2022/12/23 04:45:10;;;;;;;492.88;155.40;;;5.10;99.90;;;;;;5056854;28;20021;-60
2022/12/23 04:47:37;;;;;;;349.95;132.77;;;5.10;99.90;;;;;;5056701;28;20021;-60
2022/12/23 04:50:04;;;;;;;328.40;126.40;;;5.10;99.90;;;;;;5057754;28;20025;-60
2022/12/23 04:52:29;;;;;;;353.40;135.43;;;5.10;99.90;;;;;;5076350;28;20028;-61
2022/12/23 04:54:55;;;;;;;283.42;112.65;;;5.10;99.90;;;;;;5076498;28;20024;-60
2022/12/23 04:57:21;;;;;;;267.58;90.70;;;5.20;99.90;;;;;;5076319;28;20032;-60
2022/12/23 04:59:47;;;;;;;204.25;74.28;;;5.10;99.90;;;;;;5076666;28;20033;-60
2022/12/23 05:02:13;;;;;;;183.68;76.18;;;5.20;99.90;;;;;;5075857;28;20500;-60
2022/12/23 05:04:39;;;;;;;260.52;80.35;;;5.30;99.90;;;;;;5076413;28;20036;-61
2022/12/23 05:07:05;;;;;;;238.13;81.50;;;5.40;99.90;;;;;;5076389;28;20375;-60
2022/12/23 05:09:31;;;;;;;238.05;85.93;;;5.40;99.90;;;;;;5076124;28;20036;-60
2022/12/23 05:11:57;;;;;;;255.10;86.63;;;5.40;99.90;;;;;;5076144;28;20449;-61
2022/12/23 05:14:23;;;;;;;283.70;95.28;;;5.50;99.90;;;;;;5076034;28;20032;-61
2022/12/23 05:16:49;;;;;;;280.50;108.88;;;5.60;99.90;;;;;;5076070;28;20183;-61
2022/12/23 05:19:15;;;;;;;361.02;119.40;;;5.60;99.90;;;;;;5075899;28;20044;-61
2022/12/23 05:21:41;;;;;;;286.65;106.55;;;5.60;99.90;;;;;;5075976;28;20025;-60
2022/12/23 05:24:07;;;;;;;361.88;125.97;;;5.60;99.90;;;;;;5076319;28;20021;-60
2022/12/23 05:26:33;;;;;;;270.42;113.43;;;5.70;99.90;;;;;;5075763;28;20063;-61
2022/12/23 05:28:58;;;;;;;261.55;112.78;;;5.60;99.90;;;;;;5075836;28;20517;-61
2022/12/23 05:31:25;;;;;;;381.90;136.07;;;5.70;99.90;;;;;;5075914;28;20108;-60
2022/12/23 05:33:51;;;;;;;312.17;126.38;;;5.80;99.90;;;;;;5075646;28;20107;-60
2022/12/23 05:36:16;;;;;;;350.92;137.32;;;5.80;99.90;;;;;;5075663;28;20048;-61
2022/12/23 05:38:42;;;;;;;347.90;143.65;;;5.80;99.90;;;;;;5057747;28;20449;-60
2022/12/23 05:41:08;;;;;;;315.80;143.20;;;5.90;99.90;;;;;;5075562;28;20373;-61
2022/12/23 05:43:34;;;;;;;240.43;106.50;;;5.90;99.90;;;;;;5075457;28;20025;-60
2022/12/23 05:46:00;;;;;;;234.45;111.53;;;5.90;99.90;;;;;;5075627;28;20078;-61
2022/12/23 05:48:26;;;;;;;282.55;134.15;;;5.80;99.90;;;;;;5057432;28;20443;-60
2022/12/23 05:50:52;;;;;;;180.27;88.80;;;5.80;99.90;;;;;;5075463;28;20115;-60
2022/12/23 05:53:20;;;;;;;161.82;82.97;;;5.70;99.90;;;;;;5075101;28;20112;-60
2022/12/23 05:55:47;;;;;;;153.70;76.90;;;5.80;99.90;;;;;;5075205;28;20067;-60
2022/12/23 05:58:13;;;;;;;148.82;72.70;;;5.80;99.90;;;;;;5075201;28;20021;-61
2022/12/23 06:00:39;;;;;;;155.27;75.90;;;5.80;99.90;;;;;;5075668;28;20023;-60
2022/12/23 06:03:04;;;;;;;132.18;68.75;;;5.80;99.90;;;;;;5075433;28;20052;-61
2022/12/23 06:05:30;;;;;;;138.10;66.07;;;5.80;99.90;;;;;;5074772;28;20035;-60
2022/12/23 06:07:56;;;;;;;135.85;64.55;;;5.80;99.90;;;;;;5075184;28;20028;-60
2022/12/23 06:10:22;;;;;;;186.30;87.78;;;5.80;99.90;;;;;;5074682;28;20028;-60
2022/12/23 06:12:48;;;;;;;225.70;105.60;;;5.80;99.90;;;;;;5075099;28;20028;-60
2022/12/23 06:15:14;;;;;;;175.23;86.15;;;5.70;99.90;;;;;;5074814;28;20490;-60
2022/12/23 06:17:40;;;;;;;146.45;73.03;;;5.80;99.90;;;;;;5056424;28;20146;-60
2022/12/23 06:20:07;;;;;;;265.70;132.52;;;5.80;99.90;;;;;;5074730;28;20442;-60
2022/12/23 06:22:33;;;;;;;239.65;125.85;;;5.80;99.90;;;;;;5074519;28;20048;-60
2022/12/23 06:24:59;;;;;;;159.50;84.80;;;5.70;99.90;;;;;;5074977;28;20024;-62
2022/12/23 06:27:25;;;;;;;204.38;107.80;;;5.80;99.90;;;;;;5075251;28;20373;-63
2022/12/23 06:29:50;;;;;;;213.32;116.38;;;5.70;99.90;;;;;;5075536;28;20037;-62
2022/12/23 06:32:16;;;;;;;178.15;99.63;;;5.70;99.90;;;;;;5075248;28;20052;-62
2022/12/23 06:34:42;;;;;;;157.57;83.53;;;5.60;99.90;;;;;;5075329;28;20469;-62
2022/12/23 06:37:08;;;;;;;135.05;68.22;;;5.60;99.90;;;;;;5074767;28;20060;-62
2022/12/23 06:39:34;;;;;;;131.55;69.97;;;5.60;99.90;;;;;;5074450;28;20115;-62
2022/12/23 06:42:00;;;;;;;149.18;74.05;;;5.70;99.90;;;;;;5074254;28;20069;-63
2022/12/23 06:44:26;;;;;;;144.20;73.18;;;5.70;99.90;;;;;;5074073;28;20024;-62
2022/12/23 06:46:52;;;;;;;133.65;71.75;;;5.60;99.90;;;;;;5086192;28;20028;-63
2022/12/23 06:49:18;;;;;;;155.05;79.45;;;5.60;99.90;;;;;;5093505;28;20039;-62
2022/12/23 06:51:44;;;;;;;171.07;86.57;;;5.60;99.90;;;;;;5081577;28;20032;-62
2022/12/23 06:54:10;;;;;;;153.40;77.80;;;5.60;99.90;;;;;;5072580;28;20095;-63
2022/12/23 06:56:36;;;;;;;152.70;75.25;;;5.50;99.90;;;;;;5072205;28;20101;-62
2022/12/23 06:59:02;;;;;;;152.85;75.95;;;5.40;99.90;;;;;;5072944;28;20024;-63
2022/12/23 07:01:28;;;;;;;164.00;80.35;;;5.50;99.90;;;;;;5073109;28;20319;-62
2022/12/23 07:03:54;;;;;;;192.73;92.97;;;5.60;99.90;;;;;;5073979;28;20032;-61
2022/12/23 07:06:20;;;;;;;203.40;98.55;;;5.50;99.90;;;;;;5072979;28;20458;-62
2022/12/23 07:08:46;;;;;;;225.60;100.97;;;5.50;99.90;;;;;;5072892;28;20024;-61
2022/12/23 07:11:12;;;;;;;250.77;114.07;;;5.50;99.90;;;;;;5072653;28;20471;-62
2022/12/23 07:13:38;;;;;;;309.85;128.50;;;5.40;99.90;;;;;;5082967;28;20048;-61
2022/12/23 07:16:06;;;;;;;293.48;125.38;;;5.40;99.90;;;;;;5077355;28;20027;-61
2022/12/23 07:18:33;;;;;;;423.45;164.10;;;5.40;99.90;;;;;;5078681;28;20040;-61
2022/12/23 07:21:00;;;;;;;403.17;154.98;;;5.30;99.90;;;;;;5082007;28;20059;-60
2022/12/23 07:23:27;;;;;;;295.88;130.48;;;5.30;99.90;;;;;;5058385;28;20024;-61
2022/12/23 07:25:54;;;;;;;317.50;133.70;;;5.50;99.90;;;;;;5072847;28;20038;-61
2022/12/23 07:28:21;;;;;;;379.10;146.00;;;5.50;99.90;;;;;;5074085;28;20028;-59
2022/12/23 07:30:47;;;;;;;421.73;160.07;;;5.50;99.90;;;;;;5072608;28;20478;-60
2022/12/23 07:33:13;;;;;;;267.88;121.60;;;5.40;99.90;;;;;;5072977;28;20032;-61
2022/12/23 07:35:41;;;;;;;332.95;140.93;;;5.50;99.90;;;;;;5070376;28;20420;-60
2022/12/23 07:38:07;;;;;;;338.83;139.82;;;5.60;99.90;;;;;;5072965;28;20518;-61
2022/12/23 07:40:34;;;;;;;393.10;148.82;;;5.50;99.90;;;;;;5072869;28;20025;-60
2022/12/23 07:43:01;;;;;;;314.85;131.25;;;5.50;99.90;;;;;;5073202;28;20107;-61
2022/12/23 07:45:28;;;;;;;315.38;129.55;;;5.60;99.90;;;;;;5073459;28;20055;-61
2022/12/23 07:47:56;;;;;;;288.65;126.63;;;5.60;99.90;;;;;;5090680;28;20469;-61
2022/12/23 07:50:22;;;;;;;427.58;167.68;;;5.70;99.90;;;;;;5073638;28;20027;-61
2022/12/23 07:52:48;;;;;;;367.25;165.25;;;5.80;99.90;;;;;;5072727;28;20021;-59
2022/12/23 07:55:14;;;;;;;297.77;133.60;;;5.80;99.90;;;;;;5077943;28;20035;-59
2022/12/23 07:57:40;;;;;;;269.63;124.68;;;5.80;99.90;;;;;;5081520;28;20021;-59
2022/12/23 08:00:12;;;;;;;320.63;140.82;;;5.80;99.90;;;;;;5074842;28;20033;-59
2022/12/23 08:02:40;;;;;;;310.48;139.55;;;5.90;99.90;;;;;;5070750;28;20016;-62
2022/12/23 08:05:06;;;;;;;332.73;132.40;;;6.00;99.90;;;;;;5064425;28;20034;-61
2022/12/23 08:07:33;;;;;;;300.02;132.93;;;6.00;99.90;;;;;;5092746;28;20143;-62
2022/12/23 08:09:59;;;;;;;330.40;137.20;;;6.00;99.90;;;;;;5082365;28;20032;-61
2022/12/23 08:12:25;;;;;;;358.27;128.70;;;6.00;99.90;;;;;;5082257;28;20032;-61
2022/12/23 08:14:51;;;;;;;299.67;122.57;;;6.20;99.90;;;;;;5077938;28;20119;-61
2022/12/23 08:17:21;;;;;;;279.08;120.68;;;6.20;99.90;;;;;;5080303;28;20047;-61
2022/12/23 08:19:47;;;;;;;293.75;122.82;;;6.10;99.90;;;;;;5098093;28;20028;-59
2022/12/23 08:22:13;;;;;;;296.30;124.70;;;6.30;99.90;;;;;;5097924;28;20054;-59
2022/12/23 08:24:39;;;;;;;373.15;127.88;;;6.40;99.90;;;;;;5097985;28;20369;-61
2022/12/23 08:27:05;;;;;;;283.13;121.97;;;6.40;99.90;;;;;;5097381;28;20115;-59
2022/12/23 08:29:31;;;;;;;282.48;125.72;;;6.40;99.90;;;;;;5083680;28;20064;-61
2022/12/23 08:31:57;;;;;;;457.45;143.35;;;6.50;99.90;;;;;;5095349;28;20471;-59
2022/12/23 08:34:23;;;;;;;285.25;122.90;;;6.40;99.90;;;;;;5097415;28;20036;-60
2022/12/23 08:36:50;;;;;;;375.70;128.90;;;6.40;99.90;;;;;;5097388;28;20057;-62
2022/12/23 08:39:17;;;;;;;327.55;131.13;;;6.50;99.90;;;;;;5096867;28;20034;-61
2022/12/23 08:41:45;;;;;;;252.15;116.53;;;6.50;99.90;;;;;;5087291;28;20048;-59
2022/12/23 08:44:12;;;;;;;304.77;117.72;;;6.60;99.90;;;;;;5093869;28;20058;-61
2022/12/23 08:46:39;;;;;;;246.52;111.50;;;6.60;99.90;;;;;;5094976;28;20039;-59
2022/12/23 08:49:09;;;;;;;274.33;115.28;;;6.80;99.90;;;;;;5096477;28;20393;-61
2022/12/23 08:51:36;;;;;;;253.53;113.93;;;6.70;99.90;;;;;;5076237;28;20389;-60
2022/12/23 08:54:03;;;;;;;320.55;114.55;;;6.90;99.90;;;;;;5076231;28;20036;-60
2022/12/23 08:56:37;;;;;;;289.58;114.22;;;6.80;99.90;;;;;;5075395;28;20025;-60
2022/12/23 08:59:03;;;;;;;238.02;110.25;;;6.80;99.90;;;;;;5075665;28;20059;-60
2022/12/23 09:01:31;;;;;;;268.83;116.47;;;7.00;99.90;;;;;;5091053;28;20056;-60
2022/12/23 09:04:07;;;;;;;297.95;120.40;;;6.90;99.90;;;;;;5095671;28;20103;-60
2022/12/23 09:06:37;;;;;;;287.20;117.20;;;6.90;99.90;;;;;;5095498;28;20369;-60
2022/12/23 09:09:04;;;;;;;323.25;118.45;;;7.00;99.90;;;;;;5091753;28;20371;-60
2022/12/23 09:11:30;;;;;;;291.55;117.20;;;7.00;99.90;;;;;;5087356;28;20028;-62
2022/12/23 09:13:58;;;;;;;273.42;118.40;;;7.00;99.90;;;;;;5096831;28;20035;-60
2022/12/23 09:16:24;;;;;;;237.45;109.80;;;7.00;99.90;;;;;;5096184;28;20122;-60
2022/12/23 09:18:51;;;;;;;257.65;114.00;;;7.10;99.90;;;;;;5080099;28;20037;-60
2022/12/23 09:21:18;;;;;;;267.30;117.75;;;7.20;99.90;;;;;;5075738;28;20048;-61
2022/12/23 09:23:45;;;;;;;260.58;115.45;;;7.30;99.90;;;;;;5075692;28;20028;-61
2022/12/23 09:26:20;;;;;;;248.73;114.28;;;7.40;99.90;;;;;;5075155;28;20028;-61
2022/12/23 09:28:46;;;;;;;288.38;118.05;;;7.60;99.90;;;;;;5067052;28;20032;-60
2022/12/23 09:31:12;;;;;;;279.17;121.60;;;7.60;99.90;;;;;;5076398;28;20421;-61
2022/12/23 09:33:38;;;;;;;272.10;118.32;;;7.60;99.90;;;;;;5076569;28;20082;-60
2022/12/23 09:36:05;;;;;;;251.35;117.00;;;7.70;99.90;;;;;;5058597;28;20029;-62
2022/12/23 09:38:32;;;;;;;249.50;113.10;;;7.70;99.90;;;;;;5076192;28;20056;-62
2022/12/23 09:41:15;;;;;;;249.82;113.43;;;8.00;99.90;;;;;;5071953;28;20031;-61
2022/12/23 09:44:01;;;;;;;247.43;113.15;;;8.20;99.90;;;;;;5067864;28;20028;-61
2022/12/23 09:46:31;;;;;;;257.92;112.25;;;8.30;99.90;;;;;;5072243;28;20417;-61
2022/12/23 09:49:02;;;;;;;241.82;113.55;;;8.60;99.90;;;;;;5057943;28;20032;-61
2022/12/23 09:51:34;;;;;;;250.13;119.75;;;9.00;99.90;;;;;;5074014;28;20031;-61
2022/12/23 09:54:20;;;;;;;252.20;123.75;;;9.20;99.90;;;;;;5075722;28;20032;-61
2022/12/23 09:57:01;;;;;;;240.88;119.88;;;9.60;99.90;;;;;;5076098;28;20139;-61
2022/12/23 09:59:35;;;;;;;229.90;119.93;;;10.60;99.90;;;;;;5075533;28;20470;-61
2022/12/23 10:02:30;;;;;;;234.50;120.28;;;11.40;99.90;;;;;;5075255;28;20470;-61
2022/12/23 10:05:14;;;;;;;204.50;107.88;;;12.60;99.90;;;;;;5075020;28;20028;-62
2022/12/23 10:08:02;;;;;;;217.63;111.63;;;13.40;99.90;;;;;;5075444;28;20036;-61
2022/12/23 10:10:51;;;;;;;232.02;122.53;;;14.00;99.10;;;;;;5060040;28;20106;-62
2022/12/23 10:13:33;;;;;;;203.98;110.88;;;14.50;97.50;;;;;;5058464;28;20041;-62
2022/12/23 10:16:22;;;;;;;193.40;106.35;;;15.00;95.30;;;;;;5074739;28;20028;-62
2022/12/23 10:18:50;;;;;;;180.23;99.53;;;14.60;92.10;;;;;;5089788;28;20036;-62
2022/12/23 10:21:35;;;;;;;186.10;101.35;;;14.70;94.90;;;;;;5094775;28;20028;-62
2022/12/23 10:24:09;;;;;;;189.15;101.07;;;15.60;92.70;;;;;;5095397;28;20020;-62
2022/12/23 10:26:55;;;;;;;171.48;94.53;;;16.10;90.50;;;;;;5083585;28;20032;-63
2022/12/23 10:29:25;;;;;;;154.73;93.65;;;16.30;90.30;;;;;;5074358;28;20079;-64
2022/12/23 10:31:58;;;;;;;176.07;94.95;;;16.40;88.40;;;;;;5073198;28;20028;-63
2022/12/23 10:34:50;;;;;;;142.50;85.30;;;16.40;90.40;;;;;;5071630;28;20126;-63
2022/12/23 10:37:18;;;;;;;141.00;79.07;;;16.50;85.60;;;;;;5090131;28;20024;-63
2022/12/23 10:40:02;;;;;;;144.85;81.05;;;16.40;85.20;;;;;;5094690;28;20139;-63
2022/12/23 10:42:57;;;;;;;129.43;77.82;;;15.80;87.40;;;;;;5086717;28;20020;-63
2022/12/23 10:45:56;;;;;;;140.57;79.35;;;15.20;88.60;;;;;;5065424;28;20043;-63
2022/12/23 10:48:47;;;;;;;138.80;81.88;;;14.70;90.90;;;;;;5094525;28;20072;-63
2022/12/23 10:51:19;;;;;;;145.68;83.47;;;14.10;92.20;;;;;;5083921;28;20438;-63
2022/12/23 10:53:50;;;;;;;159.00;84.60;;;13.30;94.40;;;;;;5074365;28;20123;-64
2022/12/23 10:56:18;;;;;;;142.30;81.45;;;13.00;97.50;;;;;;5074263;28;20470;-62
2022/12/23 10:58:48;;;;;;;146.40;83.43;;;13.20;99.10;;;;;;5074312;28;20032;-63
2022/12/23 11:01:16;;;;;;;149.85;87.57;;;13.20;98.70;;;;;;5074343;28;20409;-62
2022/12/23 11:03:59;;;;;;;150.63;84.85;;;13.20;99.90;;;;;;5073737;28;20509;-63
2022/12/23 11:06:26;;;;;;;161.73;89.18;;;13.20;99.90;;;;;;5074190;28;20032;-63
2022/12/23 11:08:53;;;;;;;165.05;92.28;;;13.30;99.90;;;;;;5074159;28;20033;-64
2022/12/23 11:11:19;;;;;;;184.40;98.55;;;13.30;99.30;;;;;;5073854;28;20113;-63
2022/12/23 11:13:46;;;;;;;192.52;97.05;;;13.50;99.90;;;;;;5056484;28;20067;-63
2022/12/23 11:16:21;;;;;;;158.38;87.80;;;13.60;99.00;;;;;;5073750;28;20025;-63
2022/12/23 11:19:14;;;;;;;122.65;71.82;;;13.50;98.80;;;;;;5055453;28;20048;-63
2022/12/23 11:21:58;;;;;;;138.50;77.10;;;13.50;99.10;;;;;;5074249;28;20035;-63
2022/12/23 11:24:27;;;;;;;156.32;89.85;;;13.60;99.90;;;;;;5073750;28;20362;-63
2022/12/23 11:27:03;;;;;;;141.50;84.57;;;13.70;99.90;;;;;;5056000;28;20032;-63
2022/12/23 11:29:42;;;;;;;162.38;90.25;;;14.00;98.70;;;;;;5074113;28;20035;-63
2022/12/23 11:32:26;;;;;;;165.70;89.90;;;14.10;98.10;;;;;;5073795;28;20035;-63
2022/12/23 11:34:53;;;;;;;158.05;92.63;;;14.10;97.90;;;;;;5073657;28;20024;-63
2022/12/23 11:37:35;;;;;;;178.35;91.68;;;14.20;97.20;;;;;;5073842;28;20031;-64
2022/12/23 11:40:05;;;;;;;169.40;87.35;;;14.40;96.70;;;;;;5073628;28;20405;-63
2022/12/23 11:42:33;;;;;;;139.80;81.00;;;14.60;97.00;;;;;;5075743;28;20068;-63
2022/12/23 11:44:59;;;;;;;158.65;83.57;;;14.70;96.90;;;;;;5077773;28;20032;-63
2022/12/23 11:47:33;;;;;;;144.20;81.63;;;14.80;96.60;;;;;;5078165;28;20028;-63
2022/12/23 11:50:02;;;;;;;149.60;84.22;;;14.80;96.50;;;;;;5077543;28;20094;-63
2022/12/23 11:52:30;;;;;;;152.68;85.05;;;14.70;96.60;;;;;;5077596;28;20025;-63
2022/12/23 11:54:58;;;;;;;175.63;89.68;;;15.00;95.80;;;;;;5077602;28;20028;-64
2022/12/23 11:57:47;;;;;;;154.55;84.65;;;15.10;95.20;;;;;;5078411;28;20024;-63
2022/12/23 12:00:26;;;;;;;153.50;87.28;;;15.30;94.50;;;;;;5098538;28;20544;-64
2022/12/23 12:02:58;;;;;;;186.52;96.90;;;15.10;94.70;;;;;;5099049;28;20412;-63
2022/12/23 12:05:30;;;;;;;161.50;91.60;;;15.10;94.50;;;;;;5097946;28;20063;-63
2022/12/23 12:08:00;;;;;;;181.27;93.43;;;15.10;95.10;;;;;;5097846;28;20024;-63
2022/12/23 12:10:30;;;;;;;153.65;88.15;;;15.30;96.10;;;;;;5082784;28;20382;-63
2022/12/23 12:13:01;;;;;;;178.77;97.77;;;16.40;94.00;;;;;;5077598;28;20028;-63
2022/12/23 12:15:42;;;;;;;177.68;100.00;;;17.10;92.40;;;;;;5075698;28;20171;-64
2022/12/23 12:18:13;;;;;;;187.18;104.38;;;17.30;91.10;;;;;;5066824;28;20308;-63
2022/12/23 12:20:44;;;;;;;188.43;103.40;;;17.90;90.10;;;;;;5057389;28;20441;-64
2022/12/23 12:23:41;;;;;;;195.48;109.40;;;18.30;87.90;;;;;;5056619;28;20045;-64
2022/12/23 12:26:17;;;;;;;178.80;105.88;;;18.80;84.20;;;;;;5056734;28;20463;-64
2022/12/23 12:28:47;;;;;;;193.75;114.30;;;19.10;81.20;;;;;;5057011;28;20063;-64
2022/12/23 12:31:34;;;;;;;192.70;109.30;;;19.10;80.60;;;;;;5056977;28;20033;-64
2022/12/23 12:34:38;;;;;;;182.27;110.68;;;19.70;78.40;;;;;;5056928;28;20043;-64
2022/12/23 12:37:22;;;;;;;171.02;98.35;;;19.30;78.10;;;;;;5056853;28;20055;-64
2022/12/23 12:39:53;;;;;;;188.38;103.97;;;20.00;75.60;;;;;;5056815;28;20021;-64
2022/12/23 12:42:43;;;;;;;182.13;104.15;;;20.30;73.40;;;;;;5057112;28;20428;-64
2022/12/23 12:45:46;;;;;;;153.60;88.28;;;20.30;72.90;;;;;;5054471;28;20024;-65
2022/12/23 12:48:37;;;;;;;116.20;72.25;;;20.50;70.80;;;;;;5056605;28;20039;-64
2022/12/23 12:51:27;;;;;;;132.10;75.85;;;20.80;68.50;;;;;;5055576;28;20036;-65
2022/12/23 12:54:11;;;;;;;119.97;70.65;;;20.80;67.90;;;;;;5055768;28;20028;-65
2022/12/23 12:56:47;;;;;;;138.63;72.40;;;20.60;65.70;;;;;;5056406;28;20451;-65
2022/12/23 12:59:16;;;;;;;127.53;67.88;;;21.10;65.10;;;;;;5056558;28;20040;-65
2022/12/23 13:02:13;;;;;;;101.70;62.63;;;20.50;63.90;;;;;;5056791;28;20025;-66
2022/12/23 13:05:06;;;;;;;117.78;64.50;;;20.70;64.10;;;;;;5056118;28;20036;-66
2022/12/23 13:07:41;;;;;;;124.13;65.72;;;21.00;63.30;;;;;;5056478;28;20029;-65
2022/12/23 13:10:32;;;;;;;134.07;65.82;;;20.70;63.50;;;;;;5056535;28;20035;-66